Latest Coastal Weather Observations for Cape Otway

IDT60701

Issued at 9:02 pm EST Friday 19 July 2019 (issued every 10 minutes, with the page automatically refreshed every 10 minutes)

About coastal observations | Map of coastal stations | Coastal observations for TAS | Marine services | Other Formats
Station Details ID: 090015 Name: CAPE OTWAY LIGHTHOUSE Lat: -38.86 Lon: 143.51 Height: 82.0 m
Data from the previous 72 hours. | See also: Recent months at Cape Otway
Date/Time
EST
Wind Sea
Height
m
Swell Vis
km
Cloud Weather Temp
°C
Press
hPa
Rain since
9am
mm
Dir  Spd
kts
Gust
kts
Height
m
Period
s
Dir
19/09:00pm NNW 7 12 - - - - - - - 9.1 1019.8 0.0
19/08:30pm NNW 7 9 - - - - - - - 9.0 1019.9 0.0
19/08:00pm NNW 7 9 - - - - - - - 8.0 1019.9 0.0
19/07:30pm NNW 6 8 - - - - - - - 8.2 1019.8 0.0
19/07:00pm NNW 7 8 - - - - - - - 8.8 1019.7 0.0
19/06:30pm NNW 7 9 - - - - - - - 9.3 1019.7 0.0
19/06:00pm NNW 6 8 - - - - - - - 9.6 1019.7 0.0
19/05:30pm NNW 6 8 - - - - - - - 10.2 1019.5 0.0
19/05:00pm NW 6 8 - - - - - - - 11.4 1019.3 0.0
19/04:30pm NNW 9 13 - - - - - - - 11.7 1019.3 0.0
19/04:00pm NW 8 12 - - - - - - - 11.9 1019.3 0.0
19/03:30pm NW 6 10 - - - - - - - 12.1 1019.2 0.0
19/03:00pm WNW 9 13 - - - - - - - 12.0 1019.0 0.0
19/02:30pm WNW 10 14 - - - - - - - 12.3 1019.0 0.0
19/02:00pm WNW 9 15 - - - - - - - 12.2 1019.1 0.0
19/01:30pm NW 9 14 - - - - - - - 12.2 1019.1 0.0
19/01:00pm NW 10 16 - - - - - - - 12.8 1019.2 0.0
19/12:30pm NW 10 16 - - - - - - - 12.5 1019.8 0.0
19/12:00pm NW 9 13 - - - - - - - 12.1 1019.9 0.0
19/11:30am NW 9 13 - - - - - - - 12.1 1020.2 0.0
19/11:00am NW 8 13 - - - - - - - 11.8 1020.6 0.0
19/10:30am NW 8 12 - - - - - - - 11.7 1020.4 0.0
19/10:00am NW 9 13 - - - - - - - 11.8 1020.1 0.0
19/09:30am NW 9 14 - - - - - - - 11.6 1019.9 0.0
19/09:00am WNW 13 19 - - - - - - - 11.3 1019.7 2.8
19/08:30am W 12 16 - - - - - - - 11.7 1019.3 2.8
19/08:00am W 13 20 - - - - - - - 11.6 1018.9 2.8
19/07:30am W 15 21 - - - - - - - 11.5 1018.6 2.8
19/07:00am W 15 21 - - - - - - - 11.4 1018.0 2.8
19/06:30am W 14 19 - - - - - - - 11.4 1017.7 2.8
19/06:00am W 15 22 - - - - - - - 11.4 1017.3 2.8
19/05:30am W 14 20 - - - - - - - 11.3 1017.0 2.8
19/05:00am W 15 21 - - - - - - - 11.3 1017.0 2.8
19/04:30am W 18 23 - - - - - - - 11.2 1016.8 2.8
19/04:00am W 15 21 - - - - - - - 11.4 1016.6 2.8
19/03:30am W 16 23 - - - - - - - 11.2 1016.5 2.8
19/03:00am WSW 17 23 - - - - - - - 11.2 1016.3 2.8
19/02:30am W 19 26 - - - - - - - 11.3 1016.1 2.8
19/02:11am W 19 29 - - - - - - - 11.4 1015.8 2.8
19/02:00am WSW 19 26 - - - - - - - 11.4 1015.6 2.8
19/01:31am W 20 30 - - - - - - - 11.3 1015.1 2.8
19/01:30am W 20 29 - - - - - - - 11.3 1015.1 2.8
19/01:00am WSW 19 26 - - - - - - - 11.6 1014.8 2.8
19/12:35am WSW 19 29 - - - - - - - 11.7 1014.7 2.8
19/12:30am WSW 18 25 - - - - - - - 11.8 1014.8 2.8
19/12:00am W 19 25 - - - - - - - 11.9 1014.5 2.8
 
Date/Time
EST
Wind Sea
Height
m
Swell Vis
km
Cloud Weather Temp
°C
Press
hPa
Rain since
9am
mm
Dir  Spd
kts
Gust
kts
Height
m
Period
s
Dir
18/11:32pm WSW 19 29 - - - - - - - 11.7 1014.2 2.8
18/11:30pm WSW 19 27 - - - - - - - 11.7 1014.2 2.8
18/11:09pm WSW 19 30 - - - - - - - 11.7 1013.9 2.8
18/11:00pm WSW 19 28 - - - - - - - 11.8 1013.8 2.8
18/10:38pm WSW 20 30 - - - - - - - 11.9 1013.4 2.8
18/10:30pm WSW 20 27 - - - - - - - 11.4 1013.1 2.8
18/10:00pm W 20 30 - - - - - - - 11.7 1012.8 2.6
18/09:52pm WNW 21 32 - - - - - - - 11.6 1012.5 2.4
18/09:50pm WNW 21 32 - - - - - - - 11.6 1012.5 2.4
18/09:30pm NW 22 38 - - - - - - - 11.6 1011.5 2.2
18/09:00pm NW 21 38 - - - - - - Rain 11.2 1010.4 1.4
18/08:54pm NW 21 38 - - - - - - - 11.2 1010.5 1.2
18/08:31pm NW 18 28 - - - - - - - 11.4 1010.8 0.6
18/08:30pm NNW 19 28 - - - - - - - 11.4 1010.7 0.6
18/08:00pm NW 18 32 - - - - - - - 11.5 1010.8 0.6
18/07:31pm NW 16 26 - - - - - - - 11.5 1011.2 0.2
18/07:30pm NW 17 26 - - - - - - - 11.5 1011.2 0.2
18/07:00pm NW 19 29 - - - - - - - 12.0 1011.4 0.0
18/06:31pm NW 18 28 - - - - - - - 11.7 1011.7 0.0
18/06:30pm NW 19 28 - - - - - - - 11.7 1011.7 0.0
18/06:00pm NNW 19 35 - - - - - - - 11.3 1011.6 0.0
18/05:30pm NNW 16 26 - - - - - - - 10.8 1011.5 0.0
18/05:00pm NNW 19 30 - - - - - - - 11.8 1011.8 0.0
18/04:30pm NNW 18 32 - - - - - - - 11.8 1011.8 0.0
18/04:00pm NNW 16 27 - - - - - - - 11.7 1012.2 0.0
18/03:56pm NNW 15 27 - - - - - - - 11.6 1012.4 0.0
18/03:30pm NNW 13 23 - - - - - - - 11.7 1012.5 0.0
18/03:00pm NW 11 18 - - - - - - - 11.7 1012.8 0.0
18/02:30pm NNW 11 17 - - - - - - - 12.1 1013.0 0.0
18/02:00pm N 11 19 - - - - - - - 11.5 1012.7 0.0
18/01:30pm NW 13 20 - - - - - - - 11.4 1013.5 0.0
18/01:00pm NW 14 22 - - - - - - - 11.2 1014.4 0.0
18/12:30pm WNW 14 21 - - - - - - - 10.9 1014.9 0.0
18/12:00pm NW 12 18 - - - - - - - 11.1 1014.9 0.0
18/11:30am NW 13 25 - - - - - - - 11.0 1015.5 0.0
18/11:00am NW 13 19 - - - - - - - 10.6 1016.4 0.0
18/10:30am NW 13 20 - - - - - - - 10.5 1016.7 0.0
18/10:00am NW 13 21 - - - - - - - 10.2 1016.7 0.0
18/09:30am NW 13 21 - - - - - - - 10.3 1016.5 0.0
18/09:00am NW 11 17 - - - - - - - 10.5 1016.6 2.8
18/08:30am NW 11 21 - - - - - - - 10.6 1016.6 2.8
18/08:00am WNW 14 22 - - - - - - - 11.3 1016.4 2.8
18/07:30am W 14 21 - - - - - - - 11.1 1016.4 2.8
18/07:00am W 13 21 - - - - - - - 10.8 1016.1 2.8
18/06:30am W 13 18 - - - - - - - 10.8 1015.9 2.8
18/06:00am W 14 19 - - - - - - - 10.9 1015.8 2.8
18/05:30am WSW 12 18 - - - - - - - 11.2 1015.6 2.8
18/05:00am W 13 18 - - - - - - - 11.2 1015.4 2.8
18/04:30am WSW 16 22 - - - - - - - 10.8 1015.6 2.8
18/04:04am W 15 25 - - - - - - - 11.0 1015.9 2.8
18/04:00am WSW 14 21 - - - - - - - 11.0 1015.9 2.8
18/03:30am WSW 15 23 - - - - - - - 11.0 1015.9 2.8
18/03:00am W 18 25 - - - - - - - 11.2 1016.1 2.8
18/02:30am W 18 27 - - - - - - - 11.0 1016.0 2.8
18/02:01am WSW 19 29 - - - - - - - 11.3 1016.3 2.8
18/02:00am WSW 19 27 - - - - - - - 11.4 1016.3 2.8
18/01:30am WSW 20 29 - - - - - - - 11.5 1016.0 2.8
18/01:26am WSW 19 29 - - - - - - - 11.6 1016.0 2.8
18/01:00am W 20 28 - - - - - - - 11.4 1016.0 2.8
18/12:30am WSW 18 26 - - - - - - - 11.5 1015.9 2.8
18/12:00am W 21 28 - - - - - - - 11.3 1016.0 2.8
 
Date/Time
EST
Wind Sea
Height
m
Swell Vis
km
Cloud Weather Temp
°C
Press
hPa
Rain since
9am
mm
Dir  Spd
kts
Gust
kts
Height
m
Period
s
Dir
17/11:30pm WSW 19 29 - - - - - - - 11.4 1015.8 2.8
17/11:06pm WSW 19 29 - - - - - - - 11.6 1015.5 2.8
17/11:00pm WSW 19 28 - - - - - - - 11.5 1015.5 2.8
17/10:33pm WSW 20 30 - - - - - - - 11.2 1015.2 2.8
17/10:30pm W 20 28 - - - - - - - 10.9 1015.2 2.8
17/10:20pm WSW 19 27 - - - - - - - 10.6 1015.2 2.8
17/10:11pm WSW 19 27 - - - - - - - 11.2 1015.1 2.8
17/10:00pm W 21 27 - - - - - - - 11.1 1015.0 2.8
17/09:42pm W 19 29 - - - - - - - 11.1 1015.0 2.8
17/09:30pm WSW 21 29 - - - - - - - 10.6 1015.0 2.8
17/09:00pm WSW 20 31 - - - - - - Recent precip. 10.3 1014.9 2.6
17/08:30pm WSW 23 34 - - - - - - - 10.5 1014.9 2.2
17/08:26pm W 21 34 - - - - - - - 11.1 1014.7 2.0
17/08:00pm W 21 29 - - - - - - - 11.4 1014.6 2.0
17/07:30pm WSW 23 35 - - - - - - - 11.7 1014.2 2.0
17/07:14pm WSW 19 29 - - - - - - - 11.7 1013.9 2.0
17/07:00pm WSW 22 31 - - - - - - - 11.6 1013.6 2.0
17/06:35pm WSW 21 31 - - - - - - - 11.7 1013.2 2.0
17/06:30pm WSW 23 32 - - - - - - - 11.7 1013.1 2.0
17/06:09pm W 21 33 - - - - - - - 12.1 1013.0 2.0
17/06:00pm W 21 29 - - - - - - - 12.0 1012.8 2.0
17/05:30pm WSW 21 29 - - - - - - - 12.0 1012.7 2.0
17/05:00pm WSW 22 33 - - - - - - - 12.0 1012.4 2.0
17/04:31pm WSW 21 32 - - - - - - - 12.1 1011.9 2.0
17/04:30pm WSW 21 29 - - - - - - - 12.3 1011.9 2.0
17/04:03pm WSW 21 31 - - - - - - - 12.3 1011.5 2.0
17/04:00pm WSW 22 31 - - - - - - - 12.2 1011.5 2.0
17/03:39pm W 19 29 - - - - - - - 12.0 1011.3 2.0
17/03:30pm W 18 25 - - - - - - - 11.6 1011.4 2.0
17/03:00pm WNW 21 32 - - - - - - Recent precip. 11.0 1011.3 2.0
17/02:48pm WNW 21 31 - - - - - - - 11.0 1011.2 2.0
17/02:30pm WNW 25 32 - - - - - - - 10.8 1011.0 1.8
17/02:00pm WNW 20 31 - - - - - - - 11.6 1010.8 1.4
17/01:30pm WNW 17 27 - - - - - - - 12.1 1011.0 0.2
17/01:00pm WNW 20 30 - - - - - - - 12.3 1011.6 0.2
17/12:30pm WNW 22 32 - - - - - - - 11.6 1011.9 0.2
17/12:04pm WNW 20 33 - - - - - - - 11.1 1012.7 0.2
17/12:00pm WNW 21 29 - - - - - - Recent precip. 11.3 1012.8 0.2
17/11:32am WNW 17 29 - - - - - - - 11.4 1013.3 0.0
17/11:30am WNW 17 25 - - - - - - - 11.4 1013.4 0.0
17/11:00am WNW 18 29 - - - - - - - 11.4 1013.8 0.0
17/10:37am WNW 17 27 - - - - - - - 11.3 1014.2 0.0
17/10:30am NW 18 26 - - - - - - - 11.3 1014.1 0.0
17/10:07am NW 18 29 - - - - - - - 11.4 1014.2 0.0
17/10:00am NW 18 27 - - - - - - - 11.0 1014.2 0.0
17/09:31am NW 17 27 - - - - - - - 10.7 1014.5 0.0
17/09:30am NW 16 24 - - - - - - - 10.7 1014.6 0.0
17/09:08am NW 16 26 - - - - - - - 10.7 1014.7 0.0
17/09:00am NW 16 23 - - - - - - - 10.4 1014.7 3.2
17/08:30am NW 15 21 - - - - - - - 10.2 1014.8 3.2
17/08:00am NW 13 20 - - - - - - - 9.9 1014.9 3.2
17/07:30am NW 15 25 - - - - - - - 10.0 1015.5 3.2
17/07:00am NW 14 21 - - - - - - - 10.0 1015.4 3.2
17/06:30am NW 15 24 - - - - - - - 10.1 1015.5 3.2
17/06:00am WNW 14 23 - - - - - - - 10.3 1015.7 3.2
17/05:30am WNW 14 21 - - - - - - - 10.2 1015.9 3.2
17/05:02am WNW 16 26 - - - - - - - 10.1 1016.1 3.2
17/05:00am WNW 17 26 - - - - - - - 10.2 1016.1 3.2
17/04:30am NW 16 26 - - - - - - - 10.1 1016.7 3.0
17/04:21am NW 15 25 - - - - - - - 10.1 1016.7 3.0
17/04:00am WNW 15 24 - - - - - - - 10.2 1016.9 3.0
17/03:33am WNW 17 27 - - - - - - - 10.1 1017.3 3.0
17/03:30am WNW 18 27 - - - - - - - 10.2 1017.3 3.0
17/03:00am WNW 15 23 - - - - - - - 9.9 1017.6 3.0
17/02:45am WNW 15 26 - - - - - - - 9.9 1018.0 3.0
17/02:30am WNW 17 25 - - - - - - - 10.1 1018.2 3.0
17/02:00am WNW 16 27 - - - - - - - 10.4 1018.5 3.0
17/01:30am W 19 29 - - - - - - - 10.8 1018.7 3.0
17/01:00am W 18 28 - - - - - - - 10.2 1019.0 3.0
17/12:31am W 18 28 - - - - - - - 10.2 1019.3 3.0
17/12:30am W 19 28 - - - - - - - 10.2 1019.3 3.0
17/12:01am W 20 30 - - - - - - - 10.2 1019.5 3.0
17/12:00am W 21 30 - - - - - - Recent precip. 10.3 1019.5 3.0
 
Date/Time
EST
Wind Sea
Height
m
Swell Vis
km
Cloud Weather Temp
°C
Press
hPa
Rain since
9am
mm
Dir  Spd
kts
Gust
kts
Height
m
Period
s
Dir
16/11:47pm W 19 32 - - - - - - - 10.3 1019.6 3.0
16/11:30pm WNW 17 24 - - - - - - - 10.3 1019.9 2.8
16/11:09pm W 17 27 - - - - - - - 10.7 1019.8 2.6
16/11:00pm WNW 17 25 - - - - - - - 10.8 1019.8 2.4
16/10:36pm WNW 17 27 - - - - - - - 10.7 1019.9 2.0
16/10:30pm W 20 27 - - - - - - - 10.6 1020.0 2.0
16/10:04pm W 19 29 - - - - - - - 10.7 1020.3 1.8
16/10:00pm W 21 29 - - - - - - - 10.8 1020.3 1.8
16/09:30pm W 19 26 - - - - - - - 11.4 1020.3 1.8
16/09:08pm W 20 30 - - - - - - - 11.7 1020.3 1.8

Other formats

Comma delimited format used in spreadsheet applications
http://www.bom.gov.au/fwo/IDT60701/IDT60701.94842.axf

JavaScript Object Notation format (JSON) in row-major order
http://www.bom.gov.au/fwo/IDT60701/IDT60701.94842.json

Data quality

Most of these data are generated automatically and are frequently updated. Quality checks on data are not normally performed. It is possible for incorrect values to appear. Refer to information at About Latest Weather Observations and please check the disclaimer before using these data.